Time;durP1;ratioP1;P1;durP2;ratioP2;P2;SDS_P1;SDS_P2;PMS_P1;PMS_P2;Temp;Humidity;BMP_temperature;BMP_pressure;BME280_temperature;BME280_humidity;BME280_pressure;Samples;Min_cycle;Max_cycle;Signal;HPM_P1;HPM_P2
2024/04/18 00:01:25;;;;;;;7.20;4.13;;;;;;;;;;5528292;25;20243;-75
2024/04/18 00:03:51;;;;;;;6.77;4.03;;;;;;;;;;5520223;25;20273;-75
2024/04/18 00:06:16;;;;;;;9.50;4.20;;;;;;;;;;5509383;25;20263;-74
2024/04/18 00:08:42;;;;;;;7.20;3.93;;;;;;;;;;5517228;25;20251;-75
2024/04/18 00:11:07;;;;;;;9.30;4.03;;;;;;;;;;5517446;25;20852;-76
2024/04/18 00:13:33;;;;;;;7.27;4.10;;;;;;;;;;5526185;25;20234;-75
2024/04/18 00:15:58;;;;;;;7.23;4.30;;;;;;;;;;5515499;25;20263;-75
2024/04/18 00:18:23;;;;;;;12.80;4.63;;;;;;;;;;5511551;25;20290;-75
2024/04/18 00:20:49;;;;;;;7.37;4.57;;;;;;;;;;5523711;25;20284;-75
2024/04/18 00:23:14;;;;;;;8.40;4.37;;;;;;;;;;5516990;25;20236;-76
2024/04/18 00:25:40;;;;;;;12.00;5.87;;;;;;;;;;5493826;25;20232;-75
2024/04/18 00:28:05;;;;;;;8.87;3.97;;;;;;;;;;5511448;25;20358;-76
2024/04/18 00:30:31;;;;;;;7.20;4.77;;;;;;;;;;5518797;25;21051;-77
2024/04/18 00:32:56;;;;;;;9.73;4.80;;;;;;;;;;5530906;25;20274;-75
2024/04/18 00:35:21;;;;;;;10.60;4.57;;;;;;;;;;5514391;25;20274;-75
2024/04/18 00:37:47;;;;;;;9.10;5.30;;;;;;;;;;5516166;25;20244;-76
2024/04/18 00:40:12;;;;;;;10.03;4.47;;;;;;;;;;5472802;26;20272;-76
2024/04/18 00:42:38;;;;;;;9.43;4.60;;;;;;;;;;5506081;25;20243;-76
2024/04/18 00:45:05;;;;;;;11.63;4.93;;;;;;;;;;5496310;25;20778;-76
2024/04/18 00:47:30;;;;;;;8.63;4.80;;;;;;;;;;5519479;25;20248;-76
2024/04/18 00:49:57;;;;;;;8.97;4.80;;;;;;;;;;5514933;26;20410;-75
2024/04/18 00:52:22;;;;;;;6.87;4.00;;;;;;;;;;5501565;25;20279;-75
2024/04/18 00:54:49;;;;;;;10.10;4.47;;;;;;;;;;5513384;25;20667;-75
2024/04/18 00:57:17;;;;;;;10.03;4.87;;;;;;;;;;5505191;25;20236;-75
2024/04/18 00:59:44;;;;;;;7.43;4.27;;;;;;;;;;5514073;25;20239;-76
2024/04/18 01:02:10;;;;;;;10.33;4.53;;;;;;;;;;5483854;26;20534;-75
2024/04/18 01:04:38;;;;;;;7.97;4.27;;;;;;;;;;5517427;25;20239;-75
2024/04/18 01:07:03;;;;;;;8.53;5.03;;;;;;;;;;5491393;25;20239;-76
2024/04/18 01:09:29;;;;;;;10.93;4.80;;;;;;;;;;5515178;25;20266;-76
2024/04/18 01:11:54;;;;;;;13.13;5.40;;;;;;;;;;5516644;25;20274;-75
2024/04/18 01:14:20;;;;;;;11.20;4.97;;;;;;;;;;5498325;25;20792;-75
2024/04/18 01:16:45;;;;;;;8.03;4.30;;;;;;;;;;5497889;25;20228;-75
2024/04/18 01:19:19;;;;;;;11.67;4.43;;;;;;;;;;5506509;25;20671;-75
2024/04/18 01:21:48;;;;;;;9.73;4.63;;;;;;;;;;5481803;25;20274;-74
2024/04/18 01:24:14;;;;;;;9.07;4.60;;;;;;;;;;5532484;25;20259;-74
2024/04/18 01:26:40;;;;;;;11.13;4.93;;;;;;;;;;5513583;25;20235;-75
2024/04/18 01:29:05;;;;;;;10.33;4.80;;;;;;;;;;5516977;25;20246;-74
2024/04/18 01:31:31;;;;;;;10.73;4.70;;;;;;;;;;5519087;25;20339;-75
2024/04/18 01:33:57;;;;;;;10.90;5.10;;;;;;;;;;5513646;25;20584;-74
2024/04/18 01:36:23;;;;;;;12.83;4.97;;;;;;;;;;5486118;26;20680;-75
2024/04/18 01:38:49;;;;;;;13.33;5.27;;;;;;;;;;5503390;25;20315;-75
2024/04/18 01:41:16;;;;;;;13.10;4.87;;;;;;;;;;5516783;25;20243;-75
2024/04/18 01:43:41;;;;;;;7.97;4.87;;;;;;;;;;5525906;25;20700;-74
2024/04/18 01:46:07;;;;;;;12.97;4.60;;;;;;;;;;5517454;25;20229;-76
2024/04/18 01:48:32;;;;;;;16.73;4.77;;;;;;;;;;5510110;25;20743;-75
2024/04/18 01:50:58;;;;;;;9.40;4.33;;;;;;;;;;5499060;25;20322;-75
2024/04/18 01:53:23;;;;;;;9.60;4.73;;;;;;;;;;5485843;26;20290;-74
2024/04/18 01:55:49;;;;;;;11.07;4.73;;;;;;;;;;5517762;25;20243;-75
2024/04/18 01:58:14;;;;;;;10.30;4.73;;;;;;;;;;5515091;25;20726;-75
2024/04/18 02:00:43;;;;;;;10.90;4.60;;;;;;;;;;5492642;25;20832;-75
2024/04/18 02:03:09;;;;;;;10.70;4.43;;;;;;;;;;5520400;25;20311;-75
2024/04/18 02:05:34;;;;;;;7.87;4.87;;;;;;;;;;5510311;25;20760;-74
2024/04/18 02:08:00;;;;;;;10.03;4.93;;;;;;;;;;5514436;25;20577;-74
2024/04/18 02:10:25;;;;;;;9.57;5.17;;;;;;;;;;5493454;25;20617;-75
2024/04/18 02:12:50;;;;;;;14.13;5.13;;;;;;;;;;5533679;25;20285;-74
2024/04/18 02:15:16;;;;;;;15.13;5.43;;;;;;;;;;5514400;25;20765;-74
2024/04/18 02:17:41;;;;;;;9.50;5.27;;;;;;;;;;5515792;25;20308;-75
2024/04/18 02:20:07;;;;;;;10.70;5.57;;;;;;;;;;5481892;26;20683;-75
2024/04/18 02:22:32;;;;;;;14.10;5.80;;;;;;;;;;5527505;25;20243;-75
2024/04/18 02:25:08;;;;;;;8.57;5.13;;;;;;;;;;5516636;25;20355;-74
2024/04/18 02:27:35;;;;;;;9.73;5.33;;;;;;;;;;5485097;26;20720;-74
2024/04/18 02:30:03;;;;;;;13.10;5.50;;;;;;;;;;5515482;25;20595;-75
2024/04/18 02:32:29;;;;;;;11.67;5.60;;;;;;;;;;5517951;25;20282;-75
2024/04/18 02:34:54;;;;;;;10.73;5.80;;;;;;;;;;5516582;25;20647;-75
2024/04/18 02:37:20;;;;;;;11.47;5.30;;;;;;;;;;5510540;25;20227;-75
2024/04/18 02:39:46;;;;;;;11.60;5.83;;;;;;;;;;5465088;26;20627;-75
2024/04/18 02:42:12;;;;;;;9.33;5.13;;;;;;;;;;5476460;26;20599;-75
2024/04/18 02:44:37;;;;;;;10.43;4.93;;;;;;;;;;5483250;26;20332;-75
2024/04/18 02:47:03;;;;;;;12.63;5.10;;;;;;;;;;5514672;26;20235;-75
2024/04/18 02:49:28;;;;;;;13.80;5.27;;;;;;;;;;5515811;25;20270;-75
2024/04/18 02:51:54;;;;;;;8.67;5.00;;;;;;;;;;5506553;25;20753;-75
2024/04/18 02:54:20;;;;;;;10.63;5.13;;;;;;;;;;5482361;26;20335;-75
2024/04/18 02:56:45;;;;;;;10.33;5.17;;;;;;;;;;5484129;26;20307;-75
2024/04/18 02:59:15;;;;;;;10.47;5.10;;;;;;;;;;5485004;26;20239;-76
2024/04/18 03:01:41;;;;;;;11.10;4.53;;;;;;;;;;5514412;25;20267;-76
2024/04/18 03:04:06;;;;;;;8.57;4.90;;;;;;;;;;5517184;25;20299;-76
2024/04/18 03:06:32;;;;;;;8.23;4.60;;;;;;;;;;5514053;25;20235;-76
2024/04/18 03:08:57;;;;;;;10.00;5.17;;;;;;;;;;5516290;26;20279;-76
2024/04/18 03:11:22;;;;;;;10.47;5.37;;;;;;;;;;5517237;25;20235;-76
2024/04/18 03:13:48;;;;;;;10.27;5.20;;;;;;;;;;5509135;25;20299;-76
2024/04/18 03:16:14;;;;;;;11.73;4.80;;;;;;;;;;5513995;25;20607;-75
2024/04/18 03:18:42;;;;;;;12.83;5.10;;;;;;;;;;5485725;26;20567;-76
2024/04/18 03:21:07;;;;;;;11.50;4.43;;;;;;;;;;5520650;25;20813;-76
2024/04/18 03:23:32;;;;;;;15.53;5.40;;;;;;;;;;5518710;25;20274;-76
2024/04/18 03:25:58;;;;;;;9.77;4.57;;;;;;;;;;5487314;26;20694;-76
2024/04/18 03:28:24;;;;;;;12.73;4.83;;;;;;;;;;5519906;25;20236;-76
2024/04/18 03:30:49;;;;;;;11.10;4.83;;;;;;;;;;5500747;26;20359;-77
2024/04/18 03:33:15;;;;;;;10.87;4.40;;;;;;;;;;5500214;25;20241;-76
2024/04/18 03:35:41;;;;;;;8.07;4.40;;;;;;;;;;5518814;25;20247;-75
2024/04/18 03:38:07;;;;;;;10.93;5.20;;;;;;;;;;5487663;26;20243;-74
2024/04/18 03:40:32;;;;;;;9.50;4.60;;;;;;;;;;5516449;25;20239;-74
2024/04/18 03:42:58;;;;;;;12.33;4.63;;;;;;;;;;5515631;25;20282;-74
2024/04/18 03:45:23;;;;;;;11.70;4.47;;;;;;;;;;5523982;25;20240;-74
2024/04/18 03:47:52;;;;;;;11.13;5.03;;;;;;;;;;5517939;25;20550;-75
2024/04/18 03:50:18;;;;;;;14.10;4.83;;;;;;;;;;5517311;25;20240;-75
2024/04/18 03:52:44;;;;;;;7.97;4.77;;;;;;;;;;5516578;25;20239;-75
2024/04/18 03:55:09;;;;;;;6.27;4.23;;;;;;;;;;5494011;26;20278;-74
2024/04/18 03:57:35;;;;;;;6.80;4.60;;;;;;;;;;5507509;25;20267;-74
2024/04/18 04:00:02;;;;;;;8.20;4.57;;;;;;;;;;5487178;26;20389;-74
2024/04/18 04:02:27;;;;;;;12.07;5.13;;;;;;;;;;5486145;26;20251;-74
2024/04/18 04:04:53;;;;;;;10.60;4.97;;;;;;;;;;5468152;26;20750;-75
2024/04/18 04:07:20;;;;;;;11.67;4.47;;;;;;;;;;5518385;25;20270;-74
2024/04/18 04:09:45;;;;;;;10.90;4.97;;;;;;;;;;5518790;25;20785;-74
2024/04/18 04:12:11;;;;;;;10.20;4.70;;;;;;;;;;5517343;25;20235;-75
2024/04/18 04:14:37;;;;;;;12.83;5.20;;;;;;;;;;5518015;25;20793;-75
2024/04/18 04:17:02;;;;;;;10.87;4.87;;;;;;;;;;5517333;25;20768;-75
2024/04/18 04:19:28;;;;;;;16.90;4.93;;;;;;;;;;5515692;25;20247;-74
2024/04/18 04:21:53;;;;;;;11.47;4.77;;;;;;;;;;5519130;25;20231;-74
2024/04/18 04:24:18;;;;;;;10.87;4.93;;;;;;;;;;5510153;25;20234;-74
2024/04/18 04:26:44;;;;;;;7.87;4.70;;;;;;;;;;5535516;25;20465;-75
2024/04/18 04:29:09;;;;;;;11.97;5.03;;;;;;;;;;5518742;25;20613;-73
2024/04/18 04:31:35;;;;;;;9.30;5.00;;;;;;;;;;5512278;25;20244;-76
2024/04/18 04:34:00;;;;;;;12.33;4.60;;;;;;;;;;5517366;25;20263;-74
2024/04/18 04:36:26;;;;;;;9.07;4.80;;;;;;;;;;5516737;25;20287;-74
2024/04/18 04:38:51;;;;;;;10.67;4.90;;;;;;;;;;5518068;25;20278;-74
2024/04/18 04:41:17;;;;;;;9.50;4.67;;;;;;;;;;5506808;25;20275;-74
2024/04/18 04:43:42;;;;;;;10.40;4.87;;;;;;;;;;5513989;25;20235;-74
2024/04/18 04:46:08;;;;;;;9.97;5.50;;;;;;;;;;5523164;25;20275;-75
2024/04/18 04:48:33;;;;;;;11.13;4.83;;;;;;;;;;5497711;25;20336;-75
2024/04/18 04:51:01;;;;;;;9.60;5.10;;;;;;;;;;5486831;26;20320;-75
2024/04/18 04:53:28;;;;;;;9.30;5.30;;;;;;;;;;5519150;25;20618;-75
2024/04/18 04:55:54;;;;;;;9.53;5.30;;;;;;;;;;5520790;25;20232;-74
2024/04/18 04:58:20;;;;;;;9.83;5.43;;;;;;;;;;5532714;25;20300;-74
2024/04/18 05:00:46;;;;;;;14.23;6.07;;;;;;;;;;5514988;25;20243;-76
2024/04/18 05:03:12;;;;;;;14.20;5.53;;;;;;;;;;5516769;25;20266;-74
2024/04/18 05:05:42;;;;;;;11.17;5.93;;;;;;;;;;5518273;25;20244;-75
2024/04/18 05:08:07;;;;;;;10.77;5.77;;;;;;;;;;5502164;25;20279;-74
2024/04/18 05:10:37;;;;;;;13.27;6.50;;;;;;;;;;5517368;25;20227;-74
2024/04/18 05:13:03;;;;;;;11.87;6.17;;;;;;;;;;5519589;25;20228;-74
2024/04/18 05:15:28;;;;;;;15.17;6.67;;;;;;;;;;5505554;25;20272;-73
2024/04/18 05:17:53;;;;;;;12.90;6.53;;;;;;;;;;5495775;25;20739;-74
2024/04/18 05:20:19;;;;;;;12.83;6.43;;;;;;;;;;5518238;25;20278;-74
2024/04/18 05:22:44;;;;;;;14.17;6.80;;;;;;;;;;5517476;25;20247;-74
2024/04/18 05:25:10;;;;;;;12.93;6.00;;;;;;;;;;5514246;25;20251;-73
2024/04/18 05:27:42;;;;;;;13.63;5.80;;;;;;;;;;5494739;25;20236;-74
2024/04/18 05:32:52;;;;;;;16.63;6.80;;;;;;;;;;5534121;25;20282;-74
2024/04/18 05:35:18;;;;;;;14.37;6.67;;;;;;;;;;5515901;25;20259;-74
2024/04/18 05:37:43;;;;;;;16.10;6.80;;;;;;;;;;5522406;25;20230;-74
2024/04/18 05:40:09;;;;;;;15.60;6.43;;;;;;;;;;5542083;25;20238;-74
2024/04/18 05:42:34;;;;;;;12.90;6.23;;;;;;;;;;5513977;25;20247;-74
2024/04/18 05:45:00;;;;;;;14.60;6.57;;;;;;;;;;5513613;25;20236;-74
2024/04/18 05:47:25;;;;;;;13.00;7.13;;;;;;;;;;5521311;25;20235;-74
2024/04/18 05:49:50;;;;;;;14.80;7.53;;;;;;;;;;5512117;25;20235;-75
2024/04/18 05:52:16;;;;;;;14.27;7.17;;;;;;;;;;5482702;26;20337;-74
2024/04/18 05:54:41;;;;;;;13.90;6.93;;;;;;;;;;5512181;25;20355;-75
2024/04/18 05:57:07;;;;;;;14.50;7.10;;;;;;;;;;5483396;26;20239;-75
2024/04/18 05:59:33;;;;;;;14.97;7.27;;;;;;;;;;5505942;25;20284;-75
2024/04/18 06:02:00;;;;;;;17.17;7.43;;;;;;;;;;5503753;25;20270;-74
2024/04/18 06:04:25;;;;;;;15.17;7.20;;;;;;;;;;5513339;25;20525;-74
2024/04/18 06:06:51;;;;;;;16.67;8.60;;;;;;;;;;5511116;25;20232;-74
2024/04/18 06:09:16;;;;;;;15.47;8.63;;;;;;;;;;5507474;25;20431;-75
2024/04/18 06:11:43;;;;;;;16.43;8.03;;;;;;;;;;5504015;25;20303;-74
2024/04/18 06:14:11;;;;;;;17.63;8.93;;;;;;;;;;5512590;25;20258;-74
2024/04/18 06:16:37;;;;;;;16.47;8.27;;;;;;;;;;5509175;25;20279;-74
2024/04/18 06:19:03;;;;;;;18.87;8.07;;;;;;;;;;5502101;25;20577;-74
2024/04/18 06:21:28;;;;;;;14.83;8.03;;;;;;;;;;5488137;25;20239;-75
2024/04/18 06:23:54;;;;;;;15.70;8.03;;;;;;;;;;5513910;25;20707;-73
2024/04/18 06:26:21;;;;;;;15.47;8.00;;;;;;;;;;5513709;25;20235;-75
2024/04/18 06:28:47;;;;;;;15.47;8.27;;;;;;;;;;5508236;26;20278;-74
2024/04/18 06:31:13;;;;;;;17.87;7.60;;;;;;;;;;5483907;26;20287;-74
2024/04/18 06:33:39;;;;;;;17.17;7.53;;;;;;;;;;5515248;25;20231;-74
2024/04/18 06:36:05;;;;;;;17.33;7.83;;;;;;;;;;5497431;25;20665;-74
2024/04/18 06:38:30;;;;;;;15.90;8.03;;;;;;;;;;5509150;25;20320;-74
2024/04/18 06:40:56;;;;;;;13.93;6.77;;;;;;;;;;5515393;25;20335;-74
2024/04/18 06:43:21;;;;;;;10.97;6.30;;;;;;;;;;5513698;26;20232;-74
2024/04/18 06:45:47;;;;;;;18.87;6.43;;;;;;;;;;5514910;25;20347;-74
2024/04/18 06:48:12;;;;;;;13.83;5.83;;;;;;;;;;5515196;25;20228;-75
2024/04/18 06:50:38;;;;;;;18.67;6.20;;;;;;;;;;5467603;26;20259;-74
2024/04/18 06:53:05;;;;;;;15.60;5.67;;;;;;;;;;5504656;25;20249;-74
2024/04/18 06:55:31;;;;;;;12.83;6.40;;;;;;;;;;5518371;25;20307;-75
2024/04/18 06:57:57;;;;;;;10.67;5.70;;;;;;;;;;5515474;25;20278;-76
2024/04/18 07:00:22;;;;;;;10.67;4.80;;;;;;;;;;5520315;25;20259;-75
2024/04/18 07:02:49;;;;;;;15.50;5.07;;;;;;;;;;5518310;25;20518;-74
2024/04/18 07:05:15;;;;;;;10.37;4.80;;;;;;;;;;5514423;25;20274;-74
2024/04/18 07:07:40;;;;;;;13.00;4.53;;;;;;;;;;5526187;25;20236;-74
2024/04/18 07:10:06;;;;;;;12.80;3.97;;;;;;;;;;5516420;25;20274;-75
2024/04/18 07:12:31;;;;;;;10.80;4.40;;;;;;;;;;5520914;25;20401;-76
2024/04/18 07:14:57;;;;;;;7.80;3.70;;;;;;;;;;5517860;25;20663;-75
2024/04/18 07:17:22;;;;;;;7.13;4.17;;;;;;;;;;5528801;25;20600;-74
2024/04/18 07:19:48;;;;;;;9.37;3.57;;;;;;;;;;5514201;25;20295;-75
2024/04/18 07:22:13;;;;;;;9.65;3.90;;;;;;;;;;5518484;25;20695;-76
2024/04/18 07:24:42;;;;;;;6.37;3.43;;;;;;;;;;5473059;25;20680;-76
2024/04/18 07:27:07;;;;;;;12.07;3.50;;;;;;;;;;5507236;25;20236;-76
2024/04/18 07:29:33;;;;;;;9.17;2.90;;;;;;;;;;5515178;25;20263;-76
2024/04/18 07:31:58;;;;;;;8.73;3.20;;;;;;;;;;5505690;25;20523;-75
2024/04/18 07:34:24;;;;;;;9.57;2.90;;;;;;;;;;5512380;25;20774;-76
2024/04/18 07:36:49;;;;;;;6.00;2.60;;;;;;;;;;5482084;26;20255;-76
2024/04/18 07:39:15;;;;;;;10.70;2.60;;;;;;;;;;5519461;25;20239;-75
2024/04/18 07:41:40;;;;;;;5.37;2.03;;;;;;;;;;5468307;26;20252;-76
2024/04/18 07:44:08;;;;;;;4.87;1.97;;;;;;;;;;5516799;25;20243;-76
2024/04/18 07:46:34;;;;;;;7.67;2.30;;;;;;;;;;5518629;25;20247;-75
2024/04/18 07:49:00;;;;;;;7.85;2.03;;;;;;;;;;5513618;25;20329;-76
2024/04/18 07:51:25;;;;;;;7.20;2.07;;;;;;;;;;5486605;26;20255;-77
2024/04/18 07:53:51;;;;;;;13.30;1.80;;;;;;;;;;5518869;25;20286;-76
2024/04/18 07:56:16;;;;;;;6.60;1.87;;;;;;;;;;5502179;25;20387;-76
2024/04/18 07:58:42;;;;;;;3.87;1.60;;;;;;;;;;5476118;26;20275;-74
2024/04/18 08:01:11;;;;;;;6.60;1.70;;;;;;;;;;5510692;25;20235;-74
2024/04/18 08:03:38;;;;;;;6.78;1.67;;;;;;;;;;5488370;26;20565;-76
2024/04/18 08:06:04;;;;;;;8.47;1.83;;;;;;;;;;5509791;25;20306;-74
2024/04/18 08:08:30;;;;;;;7.77;1.30;;;;;;;;;;5516939;25;20739;-77
2024/04/18 08:10:56;;;;;;;6.07;1.10;;;;;;;;;;5517981;25;20283;-76
2024/04/18 08:13:21;;;;;;;9.80;0.97;;;;;;;;;;5517300;25;20635;-74
2024/04/18 08:15:46;;;;;;;3.97;1.67;;;;;;;;;;5518305;25;20231;-74
2024/04/18 08:18:12;;;;;;;3.67;0.70;;;;;;;;;;5511907;25;20232;-75
2024/04/18 08:20:39;;;;;;;4.97;0.95;;;;;;;;;;5486639;26;20239;-73
2024/04/18 08:23:05;;;;;;;4.03;0.70;;;;;;;;;;5503692;25;20609;-72
2024/04/18 08:25:30;;;;;;;3.40;0.80;;;;;;;;;;5517359;25;20335;-76
2024/04/18 08:27:56;;;;;;;3.78;0.65;;;;;;;;;;5519481;25;20231;-74
2024/04/18 08:30:21;;;;;;;8.40;0.90;;;;;;;;;;5516616;25;20772;-73
2024/04/18 08:32:46;;;;;;;6.30;1.13;;;;;;;;;;5515841;25;20721;-74
2024/04/18 08:35:14;;;;;;;6.45;0.82;;;;;;;;;;5512490;25;20267;-72
2024/04/18 08:37:39;;;;;;;5.03;0.82;;;;;;;;;;5487361;25;20247;-73
2024/04/18 08:40:06;;;;;;;5.80;0.77;;;;;;;;;;5528450;25;20240;-75
2024/04/18 08:42:32;;;;;;;10.15;1.00;;;;;;;;;;5517348;25;21397;-71
2024/04/18 08:44:58;;;;;;;5.93;0.70;;;;;;;;;;5502889;25;20244;-73
2024/04/18 08:47:25;;;;;;;3.13;0.80;;;;;;;;;;5518034;25;20588;-72
2024/04/18 08:49:54;;;;;;;5.30;0.80;;;;;;;;;;5519052;25;20667;-72
2024/04/18 08:52:19;;;;;;;3.95;0.70;;;;;;;;;;5517368;25;20244;-73
2024/04/18 08:54:45;;;;;;;5.85;0.93;;;;;;;;;;5517485;25;20255;-75
2024/04/18 08:57:23;;;;;;;5.47;1.30;;;;;;;;;;5518200;25;20235;-73
2024/04/18 08:59:54;;;;;;;4.53;0.88;;;;;;;;;;5520769;25;20535;-74
2024/04/18 09:02:20;;;;;;;4.43;0.85;;;;;;;;;;5517003;25;20745;-75
2024/04/18 09:04:47;;;;;;;7.75;0.85;;;;;;;;;;5517260;25;20679;-76
2024/04/18 09:07:12;;;;;;;6.93;1.38;;;;;;;;;;5518868;25;20251;-75
2024/04/18 09:09:38;;;;;;;2.97;1.00;;;;;;;;;;5517347;25;20340;-75
2024/04/18 09:12:04;;;;;;;2.83;0.90;;;;;;;;;;5517839;25;20324;-75
2024/04/18 09:14:31;;;;;;;2.95;0.80;;;;;;;;;;5494033;25;20252;-76
2024/04/18 09:16:56;;;;;;;3.13;0.55;;;;;;;;;;5516123;26;20303;-74
2024/04/18 09:19:22;;;;;;;8.07;0.82;;;;;;;;;;5484944;26;20742;-74
2024/04/18 09:21:47;;;;;;;3.85;0.85;;;;;;;;;;5518922;25;20435;-76
2024/04/18 09:24:13;;;;;;;2.50;0.70;;;;;;;;;;5508255;25;20328;-76
2024/04/18 09:26:39;;;;;;;4.80;0.55;;;;;;;;;;5541271;25;20339;-72
2024/04/18 09:29:04;;;;;;;6.68;0.80;;;;;;;;;;5533722;25;20231;-72
2024/04/18 09:31:29;;;;;;;5.63;0.90;;;;;;;;;;5522099;25;20343;-73
2024/04/18 09:33:55;;;;;;;7.43;1.10;;;;;;;;;;5545934;25;20278;-74
2024/04/18 09:36:22;;;;;;;4.97;0.80;;;;;;;;;;5519254;25;20283;-75
2024/04/18 09:38:48;;;;;;;3.42;0.68;;;;;;;;;;5516996;25;20353;-73
2024/04/18 09:41:25;;;;;;;4.82;0.57;;;;;;;;;;5514391;26;20307;-73
2024/04/18 09:44:10;;;;;;;3.70;0.75;;;;;;;;;;5505623;25;20243;-73
2024/04/18 09:46:36;;;;;;;4.85;0.80;;;;;;;;;;5495621;25;20681;-74
2024/04/18 09:49:02;;;;;;;3.80;0.70;;;;;;;;;;5517707;25;20262;-75
2024/04/18 09:51:28;;;;;;;7.25;0.65;;;;;;;;;;5516867;25;20649;-75
2024/04/18 09:53:55;;;;;;;4.82;1.05;;;;;;;;;;5517212;25;20291;-75
2024/04/18 09:56:23;;;;;;;4.70;0.70;;;;;;;;;;5517504;25;20658;-75
2024/04/18 09:58:50;;;;;;;3.22;0.60;;;;;;;;;;5518204;25;20286;-75
2024/04/18 10:01:17;;;;;;;7.72;1.15;;;;;;;;;;5517334;25;20303;-73
2024/04/18 10:03:43;;;;;;;5.03;0.70;;;;;;;;;;5518328;25;20247;-75
2024/04/18 10:06:13;;;;;;;5.38;0.80;;;;;;;;;;5484779;26;20608;-76
2024/04/18 10:08:41;;;;;;;2.67;0.80;;;;;;;;;;5512581;25;20252;-75
2024/04/18 10:11:09;;;;;;;4.88;0.80;;;;;;;;;;5514644;25;20335;-76
2024/04/18 10:13:38;;;;;;;3.83;0.63;;;;;;;;;;5543002;25;20277;-75
2024/04/18 10:16:09;;;;;;;3.22;0.60;;;;;;;;;;5485260;25;20281;-75
2024/04/18 10:18:38;;;;;;;4.55;0.77;;;;;;;;;;5517699;25;20310;-74
2024/04/18 10:21:21;;;;;;;1.20;0.55;;;;;;;;;;5518772;25;20232;-73
2024/04/18 10:23:51;;;;;;;6.20;1.23;;;;;;;;;;5477934;26;20295;-75
2024/04/18 10:26:18;;;;;;;5.45;1.00;;;;;;;;;;5534961;25;20244;-75
2024/04/18 10:28:45;;;;;;;1.58;0.40;;;;;;;;;;5521323;25;20692;-72
2024/04/18 10:31:11;;;;;;;3.17;0.80;;;;;;;;;;5521136;25;20232;-75
2024/04/18 10:33:38;;;;;;;1.02;0.40;;;;;;;;;;5520533;25;20295;-74
2024/04/18 10:36:13;;;;;;;4.70;0.70;;;;;;;;;;5521969;25;20634;-75
2024/04/18 10:38:44;;;;;;;3.58;0.40;;;;;;;;;;5519107;25;20314;-75
2024/04/18 10:41:12;;;;;;;3.33;0.65;;;;;;;;;;5518568;25;20231;-76
2024/04/18 10:43:39;;;;;;;4.10;0.70;;;;;;;;;;5520422;25;20611;-76
2024/04/18 10:46:07;;;;;;;4.38;0.75;;;;;;;;;;5517446;25;20236;-75
2024/04/18 10:48:35;;;;;;;2.08;0.55;;;;;;;;;;5521298;25;20231;-75
2024/04/18 10:51:04;;;;;;;2.03;0.60;;;;;;;;;;5519337;25;20235;-76
2024/04/18 10:53:37;;;;;;;2.10;0.85;;;;;;;;;;5518351;25;20235;-73
2024/04/18 10:56:03;;;;;;;4.90;0.82;;;;;;;;;;5519174;25;20722;-75
2024/04/18 10:58:29;;;;;;;2.00;0.70;;;;;;;;;;5489287;26;20243;-76
2024/04/18 11:01:04;;;;;;;6.05;1.10;;;;;;;;;;5513424;25;20263;-76
2024/04/18 11:03:30;;;;;;;4.15;0.80;;;;;;;;;;5530655;25;20239;-75
2024/04/18 11:05:56;;;;;;;1.38;0.50;;;;;;;;;;5489234;25;20257;-76
2024/04/18 11:08:23;;;;;;;3.97;0.45;;;;;;;;;;5519008;26;20271;-76
2024/04/18 11:10:49;;;;;;;2.67;0.70;;;;;;;;;;5518824;25;20278;-76
2024/04/18 11:13:15;;;;;;;2.72;0.55;;;;;;;;;;5486386;26;20380;-76
2024/04/18 11:15:41;;;;;;;3.65;1.17;;;;;;;;;;5512005;25;20248;-76
2024/04/18 11:18:06;;;;;;;2.35;0.77;;;;;;;;;;5519884;25;20738;-75
2024/04/18 11:20:34;;;;;;;3.85;0.75;;;;;;;;;;5518978;25;20673;-76
2024/04/18 11:22:59;;;;;;;4.22;1.08;;;;;;;;;;5509484;25;20672;-74
2024/04/18 11:25:26;;;;;;;2.33;0.50;;;;;;;;;;5519119;25;20277;-76
2024/04/18 11:27:52;;;;;;;3.63;0.57;;;;;;;;;;5518498;25;20271;-75
2024/04/18 11:30:19;;;;;;;1.50;0.50;;;;;;;;;;5488020;26;20244;-77
2024/04/18 11:32:58;;;;;;;0.98;0.43;;;;;;;;;;5520400;25;20279;-75
2024/04/18 11:35:25;;;;;;;2.03;0.40;;;;;;;;;;5518858;25;20247;-76
2024/04/18 11:37:50;;;;;;;4.28;0.55;;;;;;;;;;5515065;26;20236;-76
2024/04/18 11:40:16;;;;;;;1.75;0.40;;;;;;;;;;5486449;26;20649;-76
2024/04/18 11:42:42;;;;;;;1.23;0.30;;;;;;;;;;5518735;25;20256;-78
2024/04/18 11:45:08;;;;;;;0.65;0.38;;;;;;;;;;5487139;26;20660;-75
2024/04/18 11:47:33;;;;;;;1.88;0.70;;;;;;;;;;5519348;25;20279;-76
2024/04/18 11:50:00;;;;;;;2.70;0.65;;;;;;;;;;5519054;25;20243;-77
2024/04/18 11:52:25;;;;;;;4.13;0.85;;;;;;;;;;5520577;25;20232;-73
2024/04/18 11:54:51;;;;;;;3.17;0.60;;;;;;;;;;5519052;25;20270;-76
2024/04/18 11:57:16;;;;;;;3.45;0.50;;;;;;;;;;5520984;25;20266;-76
2024/04/18 11:59:43;;;;;;;2.03;0.65;;;;;;;;;;5517536;25;20252;-76
2024/04/18 12:02:09;;;;;;;1.38;0.60;;;;;;;;;;5519953;25;20478;-76
2024/04/18 12:04:35;;;;;;;3.83;0.65;;;;;;;;;;5515763;25;20233;-75
2024/04/18 12:07:00;;;;;;;1.75;0.57;;;;;;;;;;5520983;25;20270;-76
2024/04/18 12:09:27;;;;;;;1.30;0.40;;;;;;;;;;5517730;25;20232;-76
2024/04/18 12:11:52;;;;;;;2.60;0.60;;;;;;;;;;5520486;25;20520;-76
2024/04/18 12:14:18;;;;;;;2.17;0.60;;;;;;;;;;5519944;25;20278;-74
2024/04/18 12:16:43;;;;;;;2.58;0.65;;;;;;;;;;5520271;25;20228;-75
2024/04/18 12:19:08;;;;;;;2.72;0.60;;;;;;;;;;5518974;25;20376;-74
2024/04/18 12:21:34;;;;;;;2.80;0.30;;;;;;;;;;5518303;25;20243;-74
2024/04/18 12:23:59;;;;;;;3.25;0.70;;;;;;;;;;5518566;25;20272;-75
2024/04/18 12:26:25;;;;;;;2.95;0.73;;;;;;;;;;5486004;25;20269;-71
2024/04/18 12:28:50;;;;;;;2.00;0.70;;;;;;;;;;5486545;26;20251;-74
2024/04/18 12:31:16;;;;;;;2.13;0.70;;;;;;;;;;5465033;26;20302;-75
2024/04/18 12:33:41;;;;;;;5.07;0.65;;;;;;;;;;5517021;25;20278;-75
2024/04/18 12:36:09;;;;;;;4.13;0.70;;;;;;;;;;5519665;25;20290;-75
2024/04/18 12:38:35;;;;;;;2.65;0.70;;;;;;;;;;5519412;25;20247;-76
2024/04/18 12:41:01;;;;;;;1.92;0.90;;;;;;;;;;5518784;25;20259;-74
2024/04/18 12:43:26;;;;;;;1.40;0.32;;;;;;;;;;5486400;26;20640;-74
2024/04/18 12:45:57;;;;;;;1.58;0.45;;;;;;;;;;5520727;25;20281;-75
2024/04/18 12:48:23;;;;;;;2.67;0.50;;;;;;;;;;5518061;25;20228;-75
2024/04/18 12:50:48;;;;;;;3.95;0.50;;;;;;;;;;5517975;26;20235;-75
2024/04/18 12:53:14;;;;;;;2.08;0.65;;;;;;;;;;5518772;25;20231;-73
2024/04/18 12:55:39;;;;;;;3.38;0.70;;;;;;;;;;5486732;26;20332;-76
2024/04/18 12:58:06;;;;;;;2.40;0.50;;;;;;;;;;5516852;25;20239;-76
2024/04/18 13:00:31;;;;;;;3.70;0.73;;;;;;;;;;5514591;25;20346;-74
2024/04/18 13:02:57;;;;;;;4.68;0.90;;;;;;;;;;5487227;25;20553;-75
2024/04/18 13:05:23;;;;;;;2.72;0.80;;;;;;;;;;5485833;26;20278;-73
2024/04/18 13:07:48;;;;;;;5.07;0.85;;;;;;;;;;5506215;25;20282;-74
2024/04/18 13:10:14;;;;;;;3.88;0.98;;;;;;;;;;5484095;26;20247;-73
2024/04/18 13:12:39;;;;;;;3.33;0.60;;;;;;;;;;5517268;25;20259;-75
2024/04/18 13:15:05;;;;;;;4.45;0.73;;;;;;;;;;5520553;25;20689;-75
2024/04/18 13:17:31;;;;;;;3.92;0.63;;;;;;;;;;5504653;25;20639;-75
2024/04/18 13:19:58;;;;;;;3.30;0.70;;;;;;;;;;5544780;25;20840;-74
2024/04/18 13:22:23;;;;;;;3.33;0.60;;;;;;;;;;5517612;25;20308;-76
2024/04/18 13:24:49;;;;;;;2.75;0.88;;;;;;;;;;5518679;25;20224;-72
2024/04/18 13:27:14;;;;;;;6.00;0.73;;;;;;;;;;5517060;25;20240;-76
2024/04/18 13:29:40;;;;;;;1.23;0.40;;;;;;;;;;5517085;25;20268;-73
2024/04/18 13:32:05;;;;;;;2.58;0.43;;;;;;;;;;5519638;25;20231;-74
2024/04/18 13:34:31;;;;;;;2.60;0.50;;;;;;;;;;5517563;26;20243;-74
2024/04/18 13:36:56;;;;;;;5.25;0.60;;;;;;;;;;5520135;25;20235;-73
2024/04/18 13:39:22;;;;;;;3.95;0.65;;;;;;;;;;5478054;26;20244;-74
2024/04/18 13:41:47;;;;;;;3.15;0.70;;;;;;;;;;5503077;25;20904;-74
2024/04/18 13:44:13;;;;;;;3.40;0.73;;;;;;;;;;5518053;25;20235;-76
2024/04/18 13:46:38;;;;;;;4.18;0.68;;;;;;;;;;5548608;25;20422;-71
2024/04/18 13:49:03;;;;;;;2.65;0.77;;;;;;;;;;5519366;25;20723;-75
2024/04/18 13:51:29;;;;;;;4.43;0.80;;;;;;;;;;5517192;25;20239;-76
2024/04/18 13:53:56;;;;;;;3.13;0.50;;;;;;;;;;5497436;26;20248;-76
2024/04/18 13:56:23;;;;;;;2.90;0.68;;;;;;;;;;5514460;25;20254;-76
2024/04/18 13:58:49;;;;;;;3.60;0.98;;;;;;;;;;5517817;26;20492;-76
2024/04/18 14:01:14;;;;;;;1.90;0.80;;;;;;;;;;5514713;25;20325;-76
2024/04/18 14:03:40;;;;;;;4.43;0.77;;;;;;;;;;5516955;25;20261;-75
2024/04/18 14:06:07;;;;;;;3.40;0.70;;;;;;;;;;5516439;25;20240;-75
2024/04/18 14:08:32;;;;;;;2.35;0.60;;;;;;;;;;5518235;25;20303;-77
2024/04/18 14:10:58;;;;;;;2.38;0.88;;;;;;;;;;5518853;25;20239;-74
2024/04/18 14:13:23;;;;;;;3.83;1.23;;;;;;;;;;5501727;25;20321;-76
2024/04/18 14:18:51;;;;;;;4.88;0.80;;;;;;;;;;5518528;26;20315;-75
2024/04/18 14:21:18;;;;;;;4.35;0.65;;;;;;;;;;5516511;25;20243;-74
2024/04/18 14:23:43;;;;;;;5.25;0.90;;;;;;;;;;5517828;25;20297;-75
2024/04/18 14:26:09;;;;;;;7.70;1.38;;;;;;;;;;5514975;25;20239;-76
2024/04/18 14:28:34;;;;;;;2.13;0.65;;;;;;;;;;5509486;25;20240;-76
2024/04/18 14:31:00;;;;;;;1.88;0.50;;;;;;;;;;5516251;25;20231;-76
2024/04/18 14:33:25;;;;;;;2.05;0.63;;;;;;;;;;5481632;26;20275;-75
2024/04/18 14:35:52;;;;;;;3.28;0.82;;;;;;;;;;5510442;25;20254;-75
2024/04/18 14:38:17;;;;;;;4.03;0.95;;;;;;;;;;5497602;26;20335;-76